| time (UTC) | temp F | wind direction | speed knots | gust knots | rain 1hr in | rain 24hr in | rain mn in | humidity % | barometer mb |
| 20260906035003 | 60 | 253 | 0.0 | 0.9 | 0.00 | 0.01 | 0.00 | 93 | 1025.7 |
| 20260906034503 | 60 | 247 | 0.0 | 3.5 | 0.00 | 0.01 | 0.00 | 93 | 1025.6 |
| 20260906034003 | 60 | 246 | 0.0 | 3.5 | 0.00 | 0.01 | 0.00 | 93 | 1025.7 |
| 20260906033503 | 60 | 0 | 0.0 | 0.0 | 0.00 | 0.01 | 0.00 | 93 | 1025.7 |
| 20260906033217 | 60 | 0 | 0.0 | 0.0 | 0.00 | 0.01 | 0.00 | 93 | 1025.7 |
| 20260906032718 | 60 | 0 | 0.0 | 0.0 | 0.00 | 0.01 | 0.00 | 93 | 1025.8 |
| 20260906032003 | 60 | 241 | 0.0 | 0.9 | 0.00 | 0.01 | 0.00 | 93 | 1025.6 |
| 20260906031503 | 60 | 241 | 0.0 | 0.9 | 0.00 | 0.01 | 0.00 | 93 | 1025.5 |
| 20260906031003 | 60 | 237 | 0.0 | 1.7 | 0.00 | 0.01 | 0.00 | 93 | 1025.5 |
| 20260906030503 | 60 | 236 | 0.0 | 1.7 | 0.00 | 0.01 | 0.00 | 93 | 1025.5 |
| 20260906030217 | 60 | 228 | 0.0 | 0.9 | 0.00 | 0.01 | 0.00 | 92 | 1025.5 |
| 20260906025718 | 60 | 226 | 0.0 | 0.9 | 0.00 | 0.01 | 0.00 | 92 | 1025.4 |
| 20260906025003 | 60 | 208 | 0.0 | 0.9 | 0.00 | 0.01 | 0.00 | 92 | 1025.4 |
| 20260906024503 | 61 | 205 | 0.0 | 0.9 | 0.00 | 0.01 | 0.00 | 91 | 1025.4 |
| 20260906024003 | 61 | 233 | 0.0 | 0.9 | 0.00 | 0.01 | 0.00 | 91 | 1025.3 |
| 20260906023503 | 62 | 254 | 0.0 | 1.7 | 0.00 | 0.01 | 0.00 | 91 | 1025.2 |
| 20260906023003 | 62 | 252 | 0.0 | 1.7 | 0.00 | 0.01 | 0.00 | 91 | 1025.1 |
| 20260906022718 | 62 | 252 | 0.0 | 1.7 | 0.00 | 0.01 | 0.00 | 91 | 1025.1 |
| 20260906022003 | 62 | 257 | 0.0 | 1.7 | 0.00 | 0.01 | 0.00 | 92 | 1025.1 |
| 20260906021503 | 62 | 0 | 0.0 | 0.0 | 0.00 | 0.01 | 0.00 | 92 | 1025.1 |
| 20260906021003 | 62 | 0 | 0.0 | 0.0 | 0.00 | 0.01 | 0.00 | 92 | 1025.1 |
| 20260906020503 | 62 | 0 | 0.0 | 0.0 | 0.00 | 0.01 | 0.00 | 92 | 1025.0 |
| 20260906020003 | 62 | 0 | 0.0 | 0.0 | 0.00 | 0.01 | 0.00 | 93 | 1025.1 |
| 20260906015718 | 62 | 0 | 0.0 | 0.0 | 0.00 | 0.01 | 0.00 | 93 | 1025.1 |
| 20260906015216 | 62 | 0 | 0.0 | 0.0 | 0.00 | 0.01 | 0.00 | 93 | 1025.1 |
| 20260906014503 | 62 | 0 | 0.0 | 0.0 | 0.00 | 0.01 | 0.00 | 92 | 1025.1 |
| 20260906014003 | 62 | 0 | 0.0 | 0.0 | 0.00 | 0.01 | 0.00 | 92 | 1025.1 |
| 20260906013717 | 62 | 0 | 0.0 | 0.0 | 0.00 | 0.01 | 0.00 | 92 | 1025.0 |
| 20260906013003 | 62 | 0 | 0.0 | 0.0 | 0.00 | 0.01 | 0.00 | 93 | 1025.0 |
| 20260906012717 | 62 | 0 | 0.0 | 0.0 | 0.00 | 0.01 | 0.00 | 93 | 1025.1 |
| 20260906012003 | 62 | 0 | 0.0 | 0.0 | 0.00 | 0.01 | 0.00 | 93 | 1025.0 |
| 20260906011503 | 62 | 0 | 0.0 | 0.0 | 0.00 | 0.01 | 0.00 | 93 | 1025.0 |
| 20260906011003 | 62 | 0 | 0.0 | 0.0 | 0.00 | 0.01 | 0.00 | 92 | 1024.9 |
| 20260906010503 | 62 | 0 | 0.0 | 0.0 | 0.00 | 0.01 | 0.00 | 92 | 1025.0 |
| 20260906010003 | 62 | 0 | 0.0 | 0.0 | 0.00 | 0.01 | 0.00 | 92 | 1024.9 |
| 20260906005503 | 62 | 0 | 0.0 | 0.0 | 0.00 | 0.01 | 0.00 | 92 | 1024.7 |
| 20260906005003 | 62 | 0 | 0.0 | 0.0 | 0.00 | 0.01 | 0.00 | 92 | 1024.7 |
| 20260906004503 | 62 | 0 | 0.0 | 0.0 | 0.00 | 0.01 | 0.00 | 92 | 1024.7 |
| 20260906004003 | 62 | 0 | 0.0 | 0.0 | 0.00 | 0.01 | 0.00 | 91 | 1024.7 |
| 20260906003503 | 62 | 0 | 0.0 | 0.0 | 0.00 | 0.01 | 0.00 | 91 | 1024.6 |
| 20260906003003 | 62 | 0 | 0.0 | 0.0 | 0.00 | 0.01 | 0.00 | 91 | 1024.5 |
| 20260906002503 | 62 | 0 | 0.0 | 0.0 | 0.00 | 0.01 | 0.00 | 91 | 1024.5 |
| 20260906002003 | 62 | 0 | 0.0 | 0.0 | 0.00 | 0.01 | 0.00 | 91 | 1024.5 |
| 20260906001503 | 62 | 0 | 0.0 | 0.0 | 0.00 | 0.01 | 0.00 | 91 | 1024.5 |
| 20260906001003 | 62 | 0 | 0.0 | 0.0 | 0.00 | 0.01 | 0.00 | 91 | 1024.5 |
| 20260906000503 | 62 | 0 | 0.0 | 0.0 | 0.00 | 0.01 | 0.00 | 91 | 1024.6 |
| 20260906000219 | 62 | 0 | 0.0 | 0.0 | 0.00 | 0.01 | 0.00 | 91 | 1024.6 |
| 20260905235503 | 62 | 0 | 0.0 | 0.0 | 0.00 | 0.01 | 0.00 | 92 | 1024.6 |
| 20260905235003 | 62 | 0 | 0.0 | 0.0 | 0.00 | 0.01 | 0.00 | 91 | 1024.6 |
| 20260905234503 | 62 | 0 | 0.0 | 0.0 | 0.00 | 0.01 | 0.00 | 91 | 1024.5 |
| 20260905234003 | 62 | 0 | 0.0 | 0.0 | 0.00 | 0.01 | 0.00 | 92 | 1024.5 |
| 20260905233503 | 62 | 0 | 0.0 | 0.0 | 0.00 | 0.01 | 0.00 | 92 | 1024.5 |
| 20260905233003 | 62 | 0 | 0.0 | 0.0 | 0.00 | 0.01 | 0.00 | 91 | 1024.4 |
| 20260905232503 | 62 | 0 | 0.0 | 0.0 | 0.00 | 0.01 | 0.00 | 92 | 1024.4 |
| 20260905232003 | 62 | 0 | 0.0 | 0.0 | 0.00 | 0.01 | 0.00 | 92 | 1024.5 |
| 20260905231503 | 62 | 0 | 0.0 | 0.0 | 0.00 | 0.01 | 0.00 | 92 | 1024.5 |
| 20260905231003 | 62 | 0 | 0.0 | 0.0 | 0.00 | 0.01 | 0.00 | 91 | 1024.5 |
| 20260905230503 | 62 | 0 | 0.0 | 0.0 | 0.00 | 0.01 | 0.00 | 92 | 1024.4 |
| 20260905230003 | 62 | 0 | 0.0 | 0.0 | 0.00 | 0.01 | 0.00 | 92 | 1024.5 |
| 20260905225503 | 62 | 0 | 0.0 | 0.0 | 0.00 | 0.01 | 0.00 | 91 | 1024.4 |
| 20260905225218 | 62 | 0 | 0.0 | 0.0 | 0.00 | 0.01 | 0.00 | 91 | 1024.4 |
| 20260905224503 | 62 | 0 | 0.0 | 0.0 | 0.00 | 0.01 | 0.00 | 91 | 1024.3 |
| 20260905224217 | 62 | 0 | 0.0 | 0.0 | 0.00 | 0.01 | 0.00 | 91 | 1024.3 |
| 20260905223716 | 62 | 0 | 0.0 | 0.0 | 0.00 | 0.01 | 0.00 | 91 | 1024.3 |
| 20260905223003 | 62 | 0 | 0.0 | 0.0 | 0.00 | 0.01 | 0.00 | 90 | 1024.2 |
| 20260905222503 | 62 | 248 | 0.0 | 0.9 | 0.00 | 0.01 | 0.00 | 90 | 1024.2 |
| 20260905222003 | 62 | 248 | 0.0 | 0.9 | 0.00 | 0.01 | 0.00 | 90 | 1024.2 |
| 20260905221503 | 62 | 248 | 0.0 | 0.9 | 0.00 | 0.01 | 0.00 | 90 | 1024.2 |
| 20260905221003 | 62 | 0 | 0.0 | 0.0 | 0.00 | 0.01 | 0.00 | 90 | 1024.1 |
| 20260905220503 | 62 | 0 | 0.0 | 0.0 | 0.00 | 0.01 | 0.00 | 89 | 1024.0 |
| 20260905220219 | 62 | 0 | 0.0 | 0.0 | 0.00 | 0.01 | 0.00 | 89 | 1024.1 |
| 20260905215503 | 63 | 245 | 0.0 | 1.7 | 0.00 | 0.01 | 0.01 | 89 | 1024.0 |
| 20260905215003 | 63 | 253 | 0.0 | 1.7 | 0.00 | 0.01 | 0.01 | 88 | 1023.9 |
| 20260905214718 | 62 | 262 | 0.0 | 0.9 | 0.00 | 0.01 | 0.01 | 89 | 1023.9 |
| 20260905214003 | 62 | 251 | 0.0 | 0.9 | 0.00 | 0.01 | 0.01 | 90 | 1023.8 |
| 20260905213503 | 62 | 317 | 0.0 | 0.9 | 0.00 | 0.01 | 0.01 | 90 | 1023.8 |
| 20260905213217 | 62 | 312 | 0.0 | 0.9 | 0.00 | 0.01 | 0.01 | 90 | 1023.8 |
| 20260905212503 | 62 | 253 | 0.0 | 0.9 | 0.00 | 0.01 | 0.01 | 90 | 1023.7 |
| 20260905212003 | 62 | 240 | 0.0 | 0.9 | 0.00 | 0.01 | 0.01 | 91 | 1023.8 |
| 20260905211718 | 62 | 165 | 0.0 | 0.9 | 0.00 | 0.01 | 0.01 | 91 | 1023.8 |
| 20260905211003 | 62 | 118 | 0.0 | 0.9 | 0.00 | 0.01 | 0.01 | 91 | 1023.8 |
| 20260905210503 | 62 | 0 | 0.0 | 0.0 | 0.00 | 0.01 | 0.01 | 91 | 1023.8 |
| 20260905210003 | 62 | 0 | 0.0 | 0.0 | 0.00 | 0.01 | 0.01 | 90 | 1023.7 |
| 20260905205503 | 63 | 119 | 0.0 | 0.9 | 0.00 | 0.01 | 0.01 | 90 | 1023.8 |
| 20260905205003 | 63 | 143 | 0.0 | 0.9 | 0.00 | 0.01 | 0.01 | 90 | 1023.7 |
| 20260905204503 | 63 | 211 | 0.0 | 0.9 | 0.00 | 0.01 | 0.01 | 90 | 1023.6 |
| 20260905204217 | 63 | 238 | 0.0 | 0.9 | 0.00 | 0.01 | 0.01 | 90 | 1023.6 |
| 20260905203503 | 62 | 238 | 0.0 | 0.9 | 0.00 | 0.01 | 0.01 | 91 | 1023.7 |
| 20260905203003 | 63 | 239 | 0.0 | 0.9 | 0.00 | 0.01 | 0.01 | 91 | 1023.6 |
| 20260905202503 | 63 | 239 | 0.0 | 0.9 | 0.00 | 0.01 | 0.01 | 90 | 1023.6 |
| 20260905202003 | 63 | 282 | 0.0 | 0.9 | 0.00 | 0.01 | 0.01 | 90 | 1023.6 |
| 20260905201503 | 63 | 282 | 0.0 | 0.9 | 0.00 | 0.01 | 0.01 | 90 | 1023.6 |
| 20260905201003 | 63 | 0 | 0.0 | 0.0 | 0.00 | 0.01 | 0.01 | 90 | 1023.5 |
| 20260905200503 | 63 | 0 | 0.0 | 0.0 | 0.00 | 0.01 | 0.01 | 90 | 1023.5 |
| 20260905200003 | 63 | 0 | 0.0 | 0.0 | 0.00 | 0.01 | 0.01 | 90 | 1023.4 |
| 20260905195503 | 63 | 0 | 0.0 | 0.0 | 0.00 | 0.01 | 0.01 | 90 | 1023.4 |
| 20260905195216 | 63 | 0 | 0.0 | 0.0 | 0.00 | 0.01 | 0.01 | 90 | 1023.4 |
| 20260905194503 | 63 | 0 | 0.0 | 0.0 | 0.00 | 0.01 | 0.01 | 89 | 1023.4 |
| 20260905194218 | 63 | 26 | 0.0 | 0.9 | 0.00 | 0.01 | 0.01 | 89 | 1023.2 |
| 20260905193503 | 63 | 24 | 0.0 | 0.9 | 0.00 | 0.01 | 0.01 | 89 | 1023.2 |
| 20260905193003 | 63 | 348 | 0.0 | 1.7 | 0.00 | 0.01 | 0.01 | 89 | 1023.2 |
| 20260905192719 | 63 | 346 | 0.0 | 1.7 | 0.00 | 0.01 | 0.01 | 89 | 1023.2 |
| 20260905192003 | 63 | 246 | 0.0 | 0.9 | 0.00 | 0.01 | 0.01 | 90 | 1023.1 |
| 20260905191503 | 63 | 293 | 0.0 | 0.9 | 0.00 | 0.01 | 0.01 | 90 | 1023.0 |
| 20260905191003 | 63 | 291 | 0.0 | 0.9 | 0.00 | 0.01 | 0.01 | 89 | 1023.0 |
| 20260905190717 | 63 | 275 | 0.0 | 0.9 | 0.00 | 0.01 | 0.01 | 89 | 1023.0 |
| 20260905190218 | 63 | 300 | 0.0 | 0.9 | 0.00 | 0.01 | 0.01 | 89 | 1023.0 |
| 20260905185503 | 63 | 292 | 0.0 | 0.9 | 0.00 | 0.01 | 0.01 | 89 | 1023.0 |
| 20260905185003 | 63 | 343 | 0.0 | 0.9 | 0.00 | 0.01 | 0.01 | 90 | 1023.0 |
| 20260905184503 | 64 | 345 | 0.0 | 0.9 | 0.00 | 0.01 | 0.01 | 88 | 1022.9 |
| 20260905184218 | 64 | 345 | 0.0 | 0.9 | 0.00 | 0.01 | 0.01 | 88 | 1022.8 |
| 20260905183503 | 64 | 0 | 0.0 | 0.0 | 0.00 | 0.01 | 0.01 | 89 | 1022.8 |
| 20260905183003 | 64 | 0 | 0.0 | 0.0 | 0.00 | 0.01 | 0.01 | 88 | 1022.9 |
| 20260905182503 | 64 | 0 | 0.0 | 0.0 | 0.00 | 0.01 | 0.01 | 88 | 1022.8 |
| 20260905182218 | 64 | 0 | 0.0 | 0.0 | 0.00 | 0.01 | 0.01 | 89 | 1022.7 |
| 20260905181503 | 65 | 0 | 0.0 | 0.0 | 0.00 | 0.01 | 0.01 | 88 | 1022.6 |
| 20260905181218 | 65 | 313 | 0.0 | 0.9 | 0.00 | 0.01 | 0.01 | 88 | 1022.6 |
| 20260905180717 | 65 | 312 | 0.0 | 1.7 | 0.00 | 0.01 | 0.01 | 87 | 1022.5 |
| 20260905180003 | 65 | 295 | 0.0 | 0.9 | 0.00 | 0.01 | 0.01 | 89 | 1022.5 |
| 20260905175503 | 65 | 319 | 0.0 | 1.7 | 0.00 | 0.01 | 0.01 | 88 | 1022.3 |
| 20260905175218 | 65 | 322 | 0.0 | 2.6 | 0.00 | 0.01 | 0.01 | 89 | 1022.3 |
| 20260905174503 | 66 | 314 | 0.0 | 2.6 | 0.00 | 0.01 | 0.01 | 89 | 1022.0 |
| 20260905174003 | 66 | 291 | 0.0 | 2.6 | 0.00 | 0.01 | 0.01 | 89 | 1022.1 |
| 20260905173503 | 66 | 298 | 0.0 | 2.6 | 0.01 | 0.01 | 0.01 | 88 | 1021.9 |
| 20260905173003 | 66 | 296 | 0.0 | 2.6 | 0.01 | 0.01 | 0.01 | 89 | 1021.9 |
| 20260905172503 | 66 | 0 | 0.0 | 0.0 | 0.01 | 0.01 | 0.01 | 89 | 1021.7 |
| 20260905172003 | 66 | 0 | 0.0 | 0.0 | 0.01 | 0.01 | 0.01 | 89 | 1021.6 |
| 20260905171503 | 66 | 285 | 0.0 | 0.9 | 0.01 | 0.01 | 0.01 | 89 | 1021.6 |
| 20260905171003 | 66 | 278 | 0.0 | 0.9 | 0.01 | 0.01 | 0.01 | 88 | 1021.7 |
| 20260905170503 | 66 | 244 | 0.0 | 1.7 | 0.01 | 0.01 | 0.01 | 88 | 1021.5 |
| 20260905170003 | 66 | 244 | 0.0 | 1.7 | 0.01 | 0.01 | 0.01 | 88 | 1021.6 |
| 20260905165503 | 67 | 280 | 0.0 | 0.9 | 0.01 | 0.01 | 0.01 | 89 | 1021.6 |
| 20260905165003 | 67 | 314 | 0.0 | 2.6 | 0.01 | 0.01 | 0.01 | 89 | 1021.5 |
| 20260905164503 | 67 | 317 | 0.0 | 2.6 | 0.01 | 0.01 | 0.01 | 88 | 1021.4 |
| 20260905164003 | 67 | 294 | 0.9 | 4.3 | 0.01 | 0.01 | 0.01 | 88 | 1021.5 |
| 20260905163503 | 67 | 273 | 0.9 | 4.3 | 0.00 | 0.00 | 0.00 | 87 | 1021.6 |
| 20260905163217 | 67 | 270 | 0.0 | 2.6 | 0.00 | 0.00 | 0.00 | 88 | 1021.5 |
| 20260905162718 | 67 | 270 | 0.0 | 2.6 | 0.00 | 0.00 | 0.00 | 88 | 1021.5 |
| 20260905162003 | 68 | 264 | 0.0 | 2.6 | 0.00 | 0.00 | 0.00 | 88 | 1021.5 |
| 20260905161503 | 68 | 286 | 0.0 | 1.7 | 0.00 | 0.00 | 0.00 | 88 | 1021.6 |
| 20260905161003 | 68 | 279 | 0.0 | 1.7 | 0.00 | 0.00 | 0.00 | 87 | 1021.6 |
| 20260905160503 | 68 | 259 | 0.0 | 0.9 | 0.00 | 0.00 | 0.00 | 87 | 1021.6 |
| 20260905160217 | 68 | 258 | 0.0 | 0.9 | 0.00 | 0.00 | 0.00 | 87 | 1021.6 |
| 20260905155503 | 68 | 305 | 0.9 | 3.5 | 0.00 | 0.00 | 0.00 | 85 | 1021.6 |
| 20260905155003 | 69 | 305 | 0.9 | 3.5 | 0.00 | 0.00 | 0.00 | 84 | 1021.5 |
| 20260905154503 | 69 | 302 | 0.0 | 2.6 | 0.00 | 0.00 | 0.00 | 85 | 1021.6 |
| 20260905154003 | 69 | 0 | 0.0 | 0.0 | 0.00 | 0.00 | 0.00 | 86 | 1021.3 |
| 20260905153503 | 69 | 0 | 0.0 | 0.0 | 0.00 | 0.00 | 0.00 | 85 | 1021.5 |
| 20260905153003 | 70 | 0 | 0.0 | 0.0 | 0.00 | 0.00 | 0.00 | 83 | 1021.5 |
| 20260905152503 | 70 | 0 | 0.0 | 0.0 | 0.00 | 0.00 | 0.00 | 81 | 1021.5 |
| 20260905152003 | 70 | 0 | 0.0 | 0.0 | 0.00 | 0.00 | 0.00 | 82 | 1021.4 |
| 20260905151503 | 70 | 0 | 0.0 | 0.0 | 0.00 | 0.00 | 0.00 | 82 | 1021.3 |
| 20260905151003 | 70 | 0 | 0.0 | 0.0 | 0.00 | 0.00 | 0.00 | 84 | 1021.3 |
| 20260905150503 | 70 | 0 | 0.0 | 0.0 | 0.00 | 0.00 | 0.00 | 82 | 1021.3 |
| 20260905150003 | 70 | 0 | 0.0 | 0.0 | 0.00 | 0.00 | 0.00 | 83 | 1021.4 |
| 20260905145503 | 70 | 0 | 0.0 | 0.0 | 0.00 | 0.00 | 0.00 | 84 | 1021.4 |
| 20260905145216 | 70 | 0 | 0.0 | 0.0 | 0.00 | 0.00 | 0.00 | 83 | 1021.5 |
| 20260905144503 | 70 | 0 | 0.0 | 0.0 | 0.00 | 0.00 | 0.00 | 84 | 1021.5 |
| 20260905144216 | 70 | 0 | 0.0 | 0.0 | 0.00 | 0.00 | 0.00 | 84 | 1021.6 |
| 20260905143717 | 70 | 126 | 0.0 | 0.9 | 0.00 | 0.00 | 0.00 | 82 | 1021.6 |
| 20260905143003 | 70 | 126 | 0.0 | 0.9 | 0.00 | 0.00 | 0.00 | 81 | 1021.5 |
| 20260905142503 | 70 | 312 | 0.0 | 1.7 | 0.00 | 0.00 | 0.00 | 80 | 1021.7 |
| 20260905142003 | 70 | 51 | 0.9 | 3.5 | 0.00 | 0.00 | 0.00 | 77 | 1021.6 |
| 20260905141503 | 70 | 71 | 1.7 | 4.3 | 0.00 | 0.00 | 0.00 | 76 | 1021.7 |
| 20260905141003 | 70 | 72 | 2.6 | 5.2 | 0.00 | 0.00 | 0.00 | 75 | 1021.6 |
| 20260905140503 | 70 | 75 | 2.6 | 5.2 | 0.00 | 0.00 | 0.00 | 74 | 1021.6 |
| 20260905140004 | 71 | 47 | 2.6 | 6.1 | 0.00 | 0.00 | 0.00 | 72 | 1021.6 |
| 20260905135503 | 71 | 347 | 2.6 | 7.8 | 0.00 | 0.00 | 0.00 | 72 | 1021.6 |
| 20260905135003 | 72 | 300 | 2.6 | 7.8 | 0.00 | 0.00 | 0.00 | 72 | 1021.5 |
| 20260905134503 | 72 | 240 | 2.6 | 6.1 | 0.00 | 0.00 | 0.00 | 69 | 1021.4 |
| 20260905134003 | 73 | 294 | 2.6 | 8.7 | 0.00 | 0.00 | 0.00 | 69 | 1021.4 |
| 20260905133503 | 73 | 314 | 3.5 | 8.7 | 0.00 | 0.00 | 0.00 | 70 | 1021.3 |
| 20260905133218 | 73 | 315 | 3.5 | 8.7 | 0.00 | 0.00 | 0.00 | 69 | 1021.4 |
| 20260905132717 | 73 | 329 | 5.2 | 13.9 | 0.00 | 0.00 | 0.00 | 69 | 1021.4 |
| 20260905132003 | 73 | 351 | 7.8 | 14.8 | 0.00 | 0.00 | 0.00 | 68 | 1021.3 |
| 20260905131503 | 75 | 360 | 5.2 | 14.8 | 0.00 | 0.00 | 0.00 | 65 | 1021.4 |
| 20260905131003 | 78 | 100 | 2.6 | 7.0 | 0.00 | 0.00 | 0.00 | 56 | 1021.5 |
| 20260905130717 | 78 | 93 | 2.6 | 7.8 | 0.00 | 0.00 | 0.00 | 56 | 1021.1 |
| 20260905130003 | 78 | 112 | 3.5 | 9.6 | 0.00 | 0.00 | 0.00 | 54 | 1020.9 |
| 20260905125717 | 78 | 113 | 4.3 | 9.6 | 0.00 | 0.00 | 0.00 | 54 | 1020.8 |
| 20260905125218 | 78 | 108 | 4.3 | 8.7 | 0.00 | 0.00 | 0.00 | 54 | 1020.9 |
| 20260905124503 | 78 | 97 | 4.3 | 8.7 | 0.00 | 0.00 | 0.00 | 56 | 1020.9 |
| 20260905124003 | 77 | 83 | 3.5 | 6.1 | 0.00 | 0.00 | 0.00 | 57 | 1021.0 |
| 20260905123503 | 76 | 88 | 3.5 | 8.7 | 0.00 | 0.00 | 0.00 | 56 | 1021.1 |
| 20260905123003 | 77 | 97 | 3.5 | 8.7 | 0.00 | 0.00 | 0.00 | 55 | 1021.0 |
| 20260905122503 | 77 | 100 | 3.5 | 7.8 | 0.00 | 0.00 | 0.00 | 56 | 1020.9 |
| 20260905122003 | 77 | 107 | 3.5 | 7.8 | 0.00 | 0.00 | 0.00 | 56 | 1020.7 |
| 20260905121716 | 77 | 103 | 3.5 | 7.8 | 0.00 | 0.00 | 0.00 | 55 | 1020.7 |
| 20260905121003 | 78 | 97 | 3.5 | 9.6 | 0.00 | 0.00 | 0.00 | 55 | 1020.6 |
| 20260905120503 | 77 | 94 | 3.5 | 9.6 | 0.00 | 0.00 | 0.00 | 57 | 1020.5 |
| 20260905120003 | 77 | 98 | 4.3 | 10.4 | 0.00 | 0.00 | 0.00 | 55 | 1020.4 |
| 20260905115503 | 77 | 104 | 4.3 | 10.4 | 0.00 | 0.00 | 0.00 | 56 | 1020.4 |
| 20260905115003 | 77 | 106 | 4.3 | 10.4 | 0.00 | 0.00 | 0.00 | 56 | 1020.6 |
| 20260905114503 | 77 | 99 | 5.2 | 10.4 | 0.00 | 0.00 | 0.00 | 56 | 1020.6 |
| 20260905114003 | 78 | 95 | 5.2 | 13.0 | 0.00 | 0.00 | 0.00 | 55 | 1020.6 |
| 20260905113503 | 78 | 95 | 6.1 | 13.0 | 0.00 | 0.00 | 0.00 | 56 | 1020.5 |
| 20260905113217 | 78 | 92 | 6.1 | 13.0 | 0.00 | 0.00 | 0.00 | 55 | 1020.5 |
| 20260905112503 | 78 | 95 | 6.1 | 11.3 | 0.00 | 0.00 | 0.00 | 55 | 1020.4 |
| 20260905112003 | 78 | 96 | 6.1 | 12.2 | 0.00 | 0.00 | 0.00 | 56 | 1020.6 |
| 20260905111503 | 78 | 96 | 6.1 | 12.2 | 0.00 | 0.00 | 0.00 | 57 | 1020.4 |
| 20260905111003 | 78 | 102 | 5.2 | 10.4 | 0.00 | 0.00 | 0.00 | 56 | 1020.3 |
| 20260905110503 | 78 | 100 | 5.2 | 11.3 | 0.00 | 0.00 | 0.00 | 58 | 1020.2 |
| 20260905110003 | 78 | 108 | 6.1 | 11.3 | 0.00 | 0.00 | 0.00 | 60 | 1020.2 |
| 20260905105503 | 78 | 115 | 7.0 | 14.8 | 0.00 | 0.00 | 0.00 | 58 | 1020.1 |
| 20260905105003 | 78 | 106 | 6.1 | 14.8 | 0.00 | 0.00 | 0.00 | 58 | 1020.3 |
| 20260905104503 | 78 | 101 | 6.1 | 13.9 | 0.00 | 0.00 | 0.00 | 59 | 1020.2 |
| 20260905104003 | 78 | 97 | 7.0 | 13.0 | 0.00 | 0.00 | 0.00 | 59 | 1020.3 |
| 20260905103718 | 78 | 94 | 6.1 | 13.0 | 0.00 | 0.00 | 0.00 | 61 | 1020.3 |
| 20260905103003 | 78 | 99 | 5.2 | 11.3 | 0.00 | 0.00 | 0.00 | 63 | 1020.4 |
| 20260905102503 | 78 | 108 | 5.2 | 11.3 | 0.00 | 0.00 | 0.00 | 62 | 1020.3 |
| 20260905102003 | 78 | 97 | 6.1 | 13.9 | 0.00 | 0.00 | 0.00 | 64 | 1020.2 |
| 20260905101718 | 78 | 92 | 6.1 | 13.9 | 0.00 | 0.00 | 0.00 | 64 | 1020.0 |
| 20260905101003 | 79 | 97 | 5.2 | 13.0 | 0.00 | 0.00 | 0.00 | 63 | 1020.0 |
| 20260905100718 | 79 | 99 | 6.1 | 13.0 | 0.00 | 0.00 | 0.00 | 63 | 1019.9 |
| 20260905100003 | 80 | 95 | 7.0 | 14.8 | 0.00 | 0.00 | 0.00 | 64 | 1019.9 |
| 20260905095503 | 80 | 91 | 7.0 | 13.9 | 0.00 | 0.00 | 0.00 | 63 | 1019.9 |
| 20260905095216 | 80 | 89 | 6.1 | 13.9 | 0.00 | 0.00 | 0.00 | 64 | 1019.9 |
| 20260905094503 | 80 | 105 | 5.2 | 13.0 | 0.00 | 0.00 | 0.00 | 65 | 1019.7 |
| 20260905094003 | 81 | 105 | 6.1 | 13.0 | 0.00 | 0.00 | 0.00 | 64 | 1019.7 |
| 20260905093503 | 81 | 105 | 5.2 | 13.0 | 0.00 | 0.00 | 0.00 | 66 | 1019.7 |
| 20260905093003 | 81 | 110 | 4.3 | 10.4 | 0.00 | 0.00 | 0.00 | 64 | 1019.6 |
| 20260905092717 | 81 | 109 | 4.3 | 12.2 | 0.00 | 0.00 | 0.00 | 65 | 1019.5 |
| 20260905092003 | 80 | 102 | 4.3 | 12.2 | 0.00 | 0.00 | 0.00 | 66 | 1019.5 |
| 20260905091503 | 81 | 89 | 2.6 | 7.8 | 0.00 | 0.00 | 0.00 | 67 | 1019.3 |
| 20260905091003 | 81 | 85 | 0.9 | 3.5 | 0.00 | 0.00 | 0.00 | 65 | 1018.9 |
| 20260905090503 | 81 | 63 | 0.0 | 2.6 | 0.00 | 0.00 | 0.00 | 67 | 1018.8 |
| 20260905090003 | 81 | 69 | 0.9 | 2.6 | 0.00 | 0.00 | 0.00 | 67 | 1018.7 |
| 20260905085503 | 81 | 82 | 1.7 | 3.5 | 0.00 | 0.00 | 0.00 | 67 | 1018.8 |
| 20260905085003 | 80 | 70 | 1.7 | 3.5 | 0.00 | 0.00 | 0.00 | 66 | 1018.6 |
| 20260905084503 | 81 | 59 | 1.7 | 4.3 | 0.00 | 0.00 | 0.00 | 68 | 1018.6 |
| 20260905084003 | 81 | 63 | 1.7 | 4.3 | 0.00 | 0.00 | 0.00 | 67 | 1018.6 |
| 20260905083503 | 81 | 84 | 1.7 | 3.5 | 0.00 | 0.00 | 0.00 | 66 | 1018.6 |
| 20260905083003 | 82 | 117 | 0.9 | 2.6 | 0.00 | 0.00 | 0.00 | 65 | 1018.6 |
| 20260905082503 | 82 | 142 | 0.9 | 1.7 | 0.00 | 0.00 | 0.00 | 65 | 1018.6 |
| 20260905082003 | 81 | 147 | 1.7 | 3.5 | 0.00 | 0.00 | 0.00 | 65 | 1018.6 |
| 20260905081503 | 81 | 151 | 1.7 | 3.5 | 0.00 | 0.00 | 0.00 | 66 | 1018.6 |
| 20260905081003 | 81 | 155 | 1.7 | 3.5 | 0.00 | 0.00 | 0.00 | 66 | 1018.6 |
| 20260905080503 | 81 | 144 | 0.9 | 2.6 | 0.00 | 0.00 | 0.00 | 66 | 1018.5 |
| 20260905080003 | 80 | 129 | 0.9 | 2.6 | 0.00 | 0.00 | 0.00 | 69 | 1018.5 |
| 20260905075503 | 79 | 137 | 0.9 | 1.7 | 0.00 | 0.00 | 0.00 | 67 | 1018.3 |
| 20260905075003 | 79 | 144 | 0.9 | 2.6 | 0.00 | 0.00 | 0.00 | 70 | 1018.2 |
| 20260905074503 | 79 | 141 | 0.9 | 2.6 | 0.00 | 0.00 | 0.00 | 69 | 1018.2 |
| 20260905074218 | 79 | 145 | 0.9 | 2.6 | 0.00 | 0.00 | 0.00 | 71 | 1018.3 |
| 20260905073717 | 79 | 0 | 0.0 | 0.0 | 0.00 | 0.00 | 0.00 | 71 | 1018.1 |
| 20260905073218 | 78 | 0 | 0.0 | 0.0 | 0.00 | 0.00 | 0.00 | 70 | 1018.2 |
| 20260905072503 | 77 | 0 | 0.0 | 0.0 | 0.00 | 0.00 | 0.00 | 76 | 1018.2 |
| 20260905072003 | 77 | 96 | 0.0 | 0.9 | 0.00 | 0.00 | 0.00 | 74 | 1018.1 |
| 20260905071717 | 77 | 93 | 0.0 | 1.7 | 0.00 | 0.00 | 0.00 | 74 | 1018.1 |
| 20260905071003 | 77 | 21 | 0.9 | 1.7 | 0.00 | 0.00 | 0.00 | 72 | 1018.1 |
| 20260905070716 | 78 | 354 | 0.9 | 1.7 | 0.00 | 0.00 | 0.00 | 72 | 1018.0 |
| 20260905070003 | 78 | 0 | 0.0 | 0.0 | 0.00 | 0.00 | 0.00 | 70 | 1018.0 |
| 20260905065503 | 79 | 0 | 0.0 | 0.0 | 0.00 | 0.00 | 0.00 | 71 | 1017.9 |
| 20260905065003 | 78 | 0 | 0.0 | 0.0 | 0.00 | 0.00 | 0.00 | 74 | 1017.9 |
| 20260905064716 | 78 | 0 | 0.0 | 0.0 | 0.00 | 0.00 | 0.00 | 73 | 1017.9 |
| 20260905064003 | 77 | 13 | 0.0 | 1.7 | 0.00 | 0.00 | 0.00 | 74 | 1017.8 |
| 20260905063503 | 77 | 335 | 0.0 | 0.9 | 0.00 | 0.00 | 0.00 | 73 | 1017.7 |
| 20260905063003 | 77 | 335 | 0.0 | 0.9 | 0.00 | 0.00 | 0.00 | 74 | 1017.7 |
| 20260905062503 | 75 | 0 | 0.0 | 0.0 | 0.00 | 0.00 | 0.00 | 75 | 1017.8 |
| 20260905062217 | 75 | 0 | 0.0 | 0.0 | 0.00 | 0.00 | 0.00 | 75 | 1017.8 |
| 20260905061503 | 74 | 0 | 0.0 | 0.0 | 0.00 | 0.00 | 0.00 | 76 | 1017.7 |
| 20260905061217 | 74 | 0 | 0.0 | 0.0 | 0.00 | 0.00 | 0.00 | 78 | 1017.6 |
| 20260905060503 | 72 | 333 | 0.0 | 0.9 | 0.00 | 0.00 | 0.00 | 80 | 1017.6 |
| 20260905060003 | 72 | 333 | 0.0 | 0.9 | 0.00 | 0.00 | 0.00 | 80 | 1017.7 |
| 20260905055503 | 72 | 0 | 0.0 | 0.0 | 0.00 | 0.00 | 0.00 | 81 | 1017.7 |
| 20260905055003 | 70 | 334 | 0.0 | 0.9 | 0.00 | 0.00 | 0.00 | 84 | 1017.8 |
| 20260905054503 | 70 | 334 | 0.0 | 0.9 | 0.00 | 0.00 | 0.00 | 83 | 1017.7 |
| 20260905054003 | 69 | 0 | 0.0 | 0.0 | 0.00 | 0.00 | 0.00 | 84 | 1017.6 |
| 20260905053503 | 68 | 333 | 0.0 | 1.7 | 0.00 | 0.00 | 0.00 | 85 | 1017.6 |
| 20260905053003 | 68 | 334 | 0.9 | 3.5 | 0.00 | 0.00 | 0.00 | 84 | 1017.5 |
| 20260905052503 | 68 | 334 | 1.7 | 3.5 | 0.00 | 0.00 | 0.00 | 83 | 1017.5 |
| 20260905052003 | 67 | 335 | 0.0 | 2.6 | 0.00 | 0.00 | 0.00 | 85 | 1017.4 |
| 20260905051718 | 67 | 333 | 0.0 | 0.9 | 0.00 | 0.00 | 0.00 | 85 | 1017.5 |
| 20260905051003 | 66 | 333 | 0.0 | 1.7 | 0.00 | 0.00 | 0.00 | 87 | 1017.3 |
| 20260905050503 | 66 | 332 | 0.0 | 1.7 | 0.00 | 0.00 | 0.00 | 86 | 1017.3 |
| 20260905050003 | 66 | 329 | 0.0 | 0.9 | 0.00 | 0.00 | 0.00 | 87 | 1017.2 |
| 20260905045503 | 65 | 333 | 0.9 | 3.5 | 0.00 | 0.00 | 0.00 | 87 | 1017.2 |
| 20260905045003 | 66 | 334 | 0.9 | 3.5 | 0.00 | 0.00 | 0.00 | 87 | 1017.1 |
| 20260905044503 | 65 | 335 | 0.9 | 3.5 | 0.00 | 0.00 | 0.00 | 87 | 1017.1 |
| 20260905044003 | 65 | 335 | 0.0 | 2.6 | 0.00 | 0.00 | 0.00 | 87 | 1017.1 |
| 20260905043503 | 65 | 330 | 0.0 | 0.9 | 0.00 | 0.00 | 0.00 | 87 | 1017.2 |
| 20260905043003 | 64 | 331 | 0.0 | 0.9 | 0.00 | 0.00 | 0.00 | 87 | 1017.2 |
| 20260905042503 | 65 | 331 | 0.0 | 0.9 | 0.00 | 0.00 | 0.00 | 87 | 1017.2 |
| 20260905042003 | 65 | 335 | 0.0 | 0.9 | 0.00 | 0.00 | 0.00 | 87 | 1017.1 |
| 20260905041503 | 65 | 335 | 0.0 | 0.9 | 0.00 | 0.00 | 0.00 | 86 | 1017.1 |
| 20260905041003 | 65 | 335 | 0.0 | 0.9 | 0.00 | 0.00 | 0.00 | 86 | 1017.1 |
| 20260905040503 | 65 | 334 | 0.0 | 0.9 | 0.00 | 0.00 | 0.00 | 87 | 1016.9 |
| 20260905040003 | 65 | 335 | 0.0 | 1.7 | 0.00 | 0.00 | 0.00 | 86 | 1016.9 |